Muskoka, Ontario

7:59 PM EDT on October 24, 2014 (GMT -0400)
Muskoka | Change Station
CLOSE
Current Station
Airport
Location: Muskoka,
Elevation: 922 ft
Nearby Weather Stations

Elev 922 ft 44.97 °N, 79.30 °W | Updated 59 minutes ago

Overcast
Overcast
48 °F
Feels Like 48 °F
N
5
Wind Variable Wind from NW

Tomorrow is forecast to be nearly the same temperature as today.

Today
High -- | Low -- °F
--% Chance of Precip.
Yesterday
High -- | Low -- °F
Precip. -- in
7:44 AM 6:17 PM
New Moon, 1% visible
Pressure 29.96 in
Visibility 9.0 miles
Clouds Overcast 7500 ft
Dew Point 39 °F
Humidity 71%
Rainfall 0.00 in
Snow Depth Not available.
UV 0 out of 12
Pollen Not available.
Air Quality Not available.
Flu Activity Not available.
METAR CYQA 242300Z AUTO 31004KT 9SM OVC075 09/04 A2992 RMK SLP143

More Conditions Fewer Conditions

Pressure 29.96 in
Visibility 9.0 miles
Clouds Overcast 7500 ft
Dew Point 39 °F
Humidity 71%
Rainfall 0.00 in
Snow Depth Not available.
UV 0 out of 12
Pollen Not available.
Air Quality Not available.
Flu Activity Not available.
METAR CYQA 242300Z AUTO 31004KT 9SM OVC075 09/04 A2992 RMK SLP143

More Conditions Fewer Conditions

10-Day Weather Forecast

Almanac

Astronomy

Oct. 24, 2014 Rise Set
Actual Time 7:44 AM EDT 6:17 PM EDT
Civil Twilight 7:14 AM EDT 6:47 PM EDT
Nautical Twilight 6:40 AM EDT 7:21 PM EDT
Astronomical Twilight 6:06 AM EDT 7:55 PM EDT
Moon 8:23 AM EDT 6:54 PM EDT
Length of Visible Light 11h 32m
Length of Day
10h 32m
Tomorrow will be 2m 56s shorter.
New Moon, 1% of the Moon is Illuminated
Today
New Moon
Oct 30
First Quarter
Nov 6
Full
Nov 14
Last Quarter
Nov 22
New

Today's Extremes

Country Highs Country Lows

Community

WunderPhotos

Upload Photos

1,764,713 photos uploaded!

Nearby

Snow Depth

Not available.

Earthquake Activity

City Distance Mag. Time & Date
No recent earthquake activity has been reported nearby.
Minimum magnitude displayed is 2.5.

Coastal Water Temperatures

Place Temperature
No Stations Reporting

Nearby Weather Stations